This is the latest recevied weather packets stored in our database for station/object KD8PH. If no packets are shown the sender has not sent any weather packets the latest 10 day(s).
| Time | Temp. | Humidity | Pressure | Rain* | Wind** | Luminosity | Snow |
|---|---|---|---|---|---|---|---|
| 1777255538 | 21.11° C | 78% | 1012.1 hPa | 0 mm | - | - | - |
| 1777254936 | 21.11° C | 77% | 1011.9 hPa | 0 mm | - | - | - |
| 1777254343 | 21.11° C | 75% | 1012 hPa | 0 mm | - | - | - |
| 1777253739 | 21.11° C | 73% | 1011.8 hPa | 0 mm | - | - | - |
| 1777253147 | 21.11° C | 71% | 1011.6 hPa | 0 mm | - | - | - |
| 1777252543 | 21.67° C | 70% | 1011.5 hPa | 0 mm | - | - | - |
| 1777251953 | 22.22° C | 68% | 1011.4 hPa | 0 mm | - | - | - |
| 1777251341 | 22.78° C | 66% | 1011.2 hPa | 0 mm | - | - | - |
| 1777250744 | 22.78° C | 67% | 1011.2 hPa | 0 mm | - | - | - |
| 1777250144 | 23.33° C | 65% | 1011 hPa | 0 mm | - | - | - |
| 1777249553 | 23.89° C | 62% | 1010.9 hPa | 0 mm | - | - | - |
| 1777248936 | 24.44° C | 58% | 1010.8 hPa | 0 mm | - | - | - |
| 1777248339 | 25.56° C | 55% | 1010.7 hPa | 0 mm | - | - | - |
| 1777247737 | 26.11° C | 52% | 1010.8 hPa | 0 mm | - | - | - |
| 1777247136 | 26.67° C | 48% | 1010.7 hPa | 0 mm | - | - | - |
| 1777246539 | 26.67° C | 48% | 1010.6 hPa | 0 mm | - | - | - |
| 1777245938 | 26.11° C | 48% | 1010.6 hPa | 0 mm | - | - | - |
| 1777245350 | 26.11° C | 48% | 1010.5 hPa | 0 mm | - | - | - |
| 1777244752 | 26.11° C | 46% | 1010.4 hPa | 0 mm | - | - | - |
| 1777244138 | 26.11° C | 49% | 1010.3 hPa | 0 mm | - | - | - |
| 1777243544 | 26.11° C | 45% | 1010.2 hPa | 0 mm | - | - | - |
| 1777242939 | 26.11° C | 49% | 1010.3 hPa | 0 mm | - | - | - |
| 1777242335 | 26.11° C | 51% | 1010.1 hPa | 0 mm | - | - | - |
| 1777241736 | 26.11° C | 50% | 1010.2 hPa | 0 mm | - | - | - |
| 1777241134 | 26.11° C | 53% | 1010.2 hPa | 0 mm | - | - | - |
* Rain latest hour (hover to see other rain measurements)
** Current wind speed in m/s (hover to see current wind gust speed)